Time;durP1;ratioP1;P1;durP2;ratioP2;P2;SDS_P1;SDS_P2;PMS_P1;PMS_P2;Temp;Humidity;BMP_temperature;BMP_pressure;BME280_temperature;BME280_humidity;BME280_pressure;Samples;Min_cycle;Max_cycle;Signal;HPM_P1;HPM_P2
2023/02/18 00:01:53;;;;;;;16.30;4.45;;;9.20;95.60;;;;;;5005887;28;20112;-65
2023/02/18 00:04:39;;;;;;;9.73;3.63;;;9.20;95.60;;;;;;5028500;28;20024;-66
2023/02/18 00:07:25;;;;;;;9.25;2.83;;;9.20;95.60;;;;;;5025499;28;20512;-65
2023/02/18 00:10:16;;;;;;;9.70;3.88;;;9.10;95.70;;;;;;5012297;28;20433;-65
2023/02/18 00:13:02;;;;;;;14.45;4.38;;;9.10;95.70;;;;;;5024887;28;20041;-65
2023/02/18 00:15:48;;;;;;;9.50;3.80;;;9.10;95.80;;;;;;5024356;28;20045;-65
2023/02/18 00:18:34;;;;;;;5.82;2.92;;;9.10;95.80;;;;;;5031756;28;20036;-66
2023/02/18 00:21:20;;;;;;;11.95;3.50;;;9.20;95.80;;;;;;5001612;28;20045;-66
2023/02/18 00:24:06;;;;;;;11.60;3.08;;;9.20;95.90;;;;;;5017533;28;20037;-66
2023/02/18 00:26:52;;;;;;;9.65;3.33;;;9.20;95.80;;;;;;5018406;28;20119;-66
2023/02/18 00:29:38;;;;;;;8.02;2.63;;;9.20;95.90;;;;;;5018434;28;20113;-65
2023/02/18 00:32:24;;;;;;;16.35;3.40;;;9.10;95.90;;;;;;5023576;28;20116;-66
2023/02/18 00:35:10;;;;;;;12.07;4.03;;;9.10;96.00;;;;;;5024503;28;20064;-65
2023/02/18 00:37:56;;;;;;;10.88;3.30;;;9.10;96.00;;;;;;5012101;28;20037;-65
2023/02/18 00:40:42;;;;;;;12.10;3.78;;;9.00;96.00;;;;;;5012827;28;20080;-65
2023/02/18 00:43:28;;;;;;;9.93;3.13;;;9.00;96.10;;;;;;5016659;28;20053;-66
2023/02/18 00:46:15;;;;;;;9.57;3.08;;;8.90;96.20;;;;;;5027057;28;20039;-64
2023/02/18 00:49:01;;;;;;;8.30;2.88;;;8.90;96.50;;;;;;5012103;28;20037;-64
2023/02/18 00:51:47;;;;;;;14.07;3.50;;;8.90;96.60;;;;;;5029054;28;20386;-65
2023/02/18 00:54:43;;;;;;;14.10;3.53;;;8.90;96.40;;;;;;5017125;28;20449;-64
2023/02/18 00:57:29;;;;;;;8.80;3.50;;;8.90;96.40;;;;;;5029535;28;20025;-64
2023/02/18 01:00:15;;;;;;;10.90;2.92;;;8.80;96.40;;;;;;5022431;28;20397;-64
2023/02/18 01:03:01;;;;;;;16.40;4.13;;;8.80;96.40;;;;;;5029247;28;20041;-65
2023/02/18 01:05:49;;;;;;;13.88;4.00;;;8.80;96.40;;;;;;5012399;28;20117;-64
2023/02/18 01:08:36;;;;;;;11.02;3.85;;;8.80;96.40;;;;;;5017796;28;20030;-65
2023/02/18 01:11:22;;;;;;;11.48;3.72;;;8.70;96.40;;;;;;5030861;28;20033;-65
2023/02/18 01:14:08;;;;;;;13.20;3.58;;;8.70;96.40;;;;;;5026897;28;20037;-65
2023/02/18 01:16:54;;;;;;;8.85;3.17;;;8.70;96.50;;;;;;5016717;28;20057;-65
2023/02/18 01:19:39;;;;;;;11.93;2.92;;;8.60;96.50;;;;;;5015933;28;20034;-64
2023/02/18 01:22:26;;;;;;;14.15;2.78;;;8.60;96.50;;;;;;5016401;28;20152;-65
2023/02/18 01:25:12;;;;;;;11.88;3.63;;;8.60;96.50;;;;;;5011144;28;20033;-64
2023/02/18 01:27:58;;;;;;;13.05;3.80;;;8.60;96.50;;;;;;5011992;28;20065;-65
2023/02/18 01:30:44;;;;;;;10.38;2.88;;;8.60;96.50;;;;;;5022938;28;20076;-65
2023/02/18 01:33:30;;;;;;;11.13;3.15;;;8.60;96.50;;;;;;5031086;28;20030;-64
2023/02/18 01:36:16;;;;;;;6.85;2.75;;;8.60;96.50;;;;;;5023730;28;20514;-65
2023/02/18 01:39:04;;;;;;;13.32;3.13;;;8.60;96.50;;;;;;5025573;28;20025;-65
2023/02/18 01:41:50;;;;;;;12.73;3.25;;;8.50;96.50;;;;;;5035996;28;20029;-65
2023/02/18 01:44:36;;;;;;;8.10;2.72;;;8.50;96.50;;;;;;5015226;28;20400;-64
2023/02/18 01:47:22;;;;;;;10.25;3.40;;;8.50;96.60;;;;;;5025709;28;20393;-64
2023/02/18 01:50:08;;;;;;;12.80;3.28;;;8.50;96.60;;;;;;5011212;28;20037;-65
2023/02/18 01:52:54;;;;;;;12.27;3.55;;;8.50;96.60;;;;;;5028582;28;20029;-64
2023/02/18 01:55:40;;;;;;;12.48;3.00;;;8.50;96.60;;;;;;5023815;28;20049;-65
2023/02/18 01:58:26;;;;;;;8.32;3.72;;;8.40;96.70;;;;;;5027375;28;20161;-65
2023/02/18 02:01:12;;;;;;;10.02;2.72;;;8.50;96.70;;;;;;5015462;28;20485;-65
2023/02/18 02:03:58;;;;;;;10.65;3.15;;;8.50;96.70;;;;;;5032485;28;20021;-65
2023/02/18 02:06:44;;;;;;;11.52;2.85;;;8.40;96.70;;;;;;5031609;28;20588;-64
2023/02/18 02:09:33;;;;;;;14.07;3.60;;;8.40;96.70;;;;;;5036411;28;20308;-64
2023/02/18 02:12:18;;;;;;;10.48;2.47;;;8.40;96.70;;;;;;5029983;28;20088;-64
2023/02/18 02:15:20;;;;;;;10.25;3.03;;;8.50;96.70;;;;;;5015119;28;20121;-64
2023/02/18 02:18:20;;;;;;;10.98;3.53;;;8.40;96.70;;;;;;5003580;28;20030;-64
2023/02/18 02:21:06;;;;;;;10.32;2.75;;;8.40;96.70;;;;;;5015321;28;20045;-64
2023/02/18 02:24:20;;;;;;;9.85;2.55;;;8.40;96.80;;;;;;5014597;28;20038;-64
2023/02/18 02:27:25;;;;;;;12.63;3.50;;;8.40;96.80;;;;;;5014374;28;20121;-64
2023/02/18 02:30:26;;;;;;;11.00;3.00;;;8.40;96.80;;;;;;5020415;28;20068;-64
2023/02/18 02:33:43;;;;;;;13.93;3.53;;;8.40;96.80;;;;;;5028516;28;20046;-64
2023/02/18 02:37:00;;;;;;;10.73;3.05;;;8.30;96.80;;;;;;5014395;28;20037;-64
2023/02/18 02:40:29;;;;;;;8.98;3.25;;;8.30;96.80;;;;;;5001026;28;20041;-64
2023/02/18 02:43:24;;;;;;;11.60;3.78;;;8.30;96.80;;;;;;5029539;28;20033;-64
2023/02/18 02:46:32;;;;;;;9.70;2.80;;;8.30;96.80;;;;;;5029844;28;20045;-63
2023/02/18 02:49:46;;;;;;;7.28;2.70;;;8.30;96.80;;;;;;5033734;28;20040;-64
2023/02/18 02:52:38;;;;;;;11.38;4.03;;;8.30;96.80;;;;;;5017450;28;20386;-64
2023/02/18 02:55:24;;;;;;;12.57;3.28;;;8.30;96.80;;;;;;5030602;28;20050;-63
2023/02/18 02:58:15;;;;;;;11.30;2.50;;;8.30;96.80;;;;;;5014479;28;20030;-64
2023/02/18 03:01:29;;;;;;;12.30;2.53;;;8.20;96.80;;;;;;5025330;28;20508;-64
2023/02/18 03:04:26;;;;;;;8.10;2.38;;;8.30;96.80;;;;;;4992491;28;20069;-64
2023/02/18 03:07:50;;;;;;;12.75;3.53;;;8.20;96.80;;;;;;5013826;28;20045;-64
2023/02/18 03:10:42;;;;;;;9.50;2.97;;;8.20;96.80;;;;;;5025791;28;20053;-64
2023/02/18 03:13:31;;;;;;;11.63;3.38;;;8.20;96.80;;;;;;5025840;28;20536;-65
2023/02/18 03:16:41;;;;;;;10.95;2.78;;;8.20;96.80;;;;;;5013576;28;20100;-65
2023/02/18 03:19:30;;;;;;;6.85;2.28;;;8.20;96.90;;;;;;5014027;28;20084;-64
2023/02/18 03:22:25;;;;;;;6.68;2.35;;;8.10;96.80;;;;;;5033671;28;20068;-64
2023/02/18 03:25:13;;;;;;;6.68;2.33;;;8.20;96.90;;;;;;5032245;28;20030;-64
2023/02/18 03:28:04;;;;;;;10.00;3.30;;;8.20;97.00;;;;;;5030481;28;20034;-65
2023/02/18 03:30:54;;;;;;;4.82;2.47;;;8.10;96.80;;;;;;5022617;28;20029;-63
2023/02/18 03:33:49;;;;;;;7.55;3.03;;;8.10;96.80;;;;;;5018405;28;20033;-64
2023/02/18 03:36:36;;;;;;;15.73;3.60;;;8.10;96.80;;;;;;5019443;28;20065;-64
2023/02/18 03:39:26;;;;;;;10.05;2.45;;;8.10;96.80;;;;;;5013624;28;20401;-64
2023/02/18 03:42:12;;;;;;;12.45;3.65;;;8.10;96.80;;;;;;5013588;28;20603;-64
2023/02/18 03:44:58;;;;;;;8.38;2.63;;;8.10;96.80;;;;;;5014097;28;20038;-64
2023/02/18 03:47:44;;;;;;;8.90;2.30;;;8.10;96.80;;;;;;5029598;28;20041;-64
2023/02/18 03:50:30;;;;;;;9.15;2.83;;;8.10;96.70;;;;;;5032534;28;20029;-64
2023/02/18 03:53:17;;;;;;;6.47;3.17;;;8.20;96.70;;;;;;5012318;28;20037;-65
2023/02/18 03:56:03;;;;;;;11.15;2.92;;;8.10;96.60;;;;;;5013726;28;20041;-64
2023/02/18 03:58:49;;;;;;;11.88;2.60;;;8.10;96.60;;;;;;5010146;28;20034;-66
2023/02/18 04:01:35;;;;;;;13.52;3.63;;;8.20;96.60;;;;;;4992666;28;20405;-64
2023/02/18 04:04:20;;;;;;;13.20;2.38;;;8.20;96.60;;;;;;4998801;28;20437;-64
2023/02/18 04:07:06;;;;;;;7.32;2.45;;;8.20;96.50;;;;;;5007628;28;20034;-64
2023/02/18 04:09:52;;;;;;;6.60;2.45;;;8.20;96.50;;;;;;4999277;28;20039;-64
2023/02/18 04:12:38;;;;;;;10.00;2.55;;;8.10;96.40;;;;;;4992941;28;20026;-63
2023/02/18 04:15:24;;;;;;;7.10;2.65;;;8.10;96.40;;;;;;4991774;28;20406;-64
2023/02/18 04:18:10;;;;;;;6.30;2.10;;;8.20;96.40;;;;;;4993936;28;20174;-64
2023/02/18 04:20:56;;;;;;;10.07;2.13;;;8.10;96.40;;;;;;4992698;28;20089;-63
2023/02/18 04:23:42;;;;;;;8.38;2.58;;;8.20;96.30;;;;;;4996292;28;20084;-64
2023/02/18 04:26:28;;;;;;;11.10;2.30;;;8.10;96.30;;;;;;4998848;28;20033;-64
2023/02/18 04:29:14;;;;;;;9.68;2.55;;;8.10;96.30;;;;;;4998827;28;20031;-64
2023/02/18 04:32:00;;;;;;;7.05;3.30;;;8.20;96.30;;;;;;5011638;28;20426;-65
2023/02/18 04:34:46;;;;;;;7.72;2.35;;;8.10;96.30;;;;;;5002790;28;20568;-64
2023/02/18 04:37:32;;;;;;;8.68;2.65;;;8.20;96.40;;;;;;4999729;28;20034;-64
2023/02/18 04:40:18;;;;;;;7.20;1.90;;;8.10;96.30;;;;;;4994473;28;20041;-64
2023/02/18 04:43:04;;;;;;;6.03;2.13;;;8.10;96.30;;;;;;4992345;28;20036;-64
2023/02/18 04:45:50;;;;;;;9.27;2.33;;;8.10;96.30;;;;;;5004867;28;20462;-64
2023/02/18 04:48:36;;;;;;;6.82;2.30;;;8.10;96.30;;;;;;4991985;28;20030;-64
2023/02/18 04:51:22;;;;;;;6.75;2.33;;;8.10;96.30;;;;;;4992314;28;20177;-64
2023/02/18 04:54:08;;;;;;;9.10;2.80;;;8.10;96.20;;;;;;4994122;28;20497;-64
2023/02/18 04:56:54;;;;;;;10.45;1.90;;;8.10;96.20;;;;;;4996379;28;20026;-64
2023/02/18 04:59:40;;;;;;;8.98;2.70;;;8.10;96.30;;;;;;5016663;28;20053;-64
2023/02/18 05:02:26;;;;;;;6.55;2.20;;;8.10;96.50;;;;;;5014981;28;20021;-64
2023/02/18 05:05:12;;;;;;;6.00;2.03;;;8.10;96.30;;;;;;5016511;28;20072;-64
2023/02/18 05:07:58;;;;;;;8.60;2.58;;;8.10;96.30;;;;;;5030584;28;20029;-64
2023/02/18 05:10:44;;;;;;;7.90;2.20;;;8.10;96.30;;;;;;5018378;28;20029;-64
2023/02/18 05:13:30;;;;;;;6.18;1.73;;;8.10;96.30;;;;;;5022717;28;20033;-65
2023/02/18 05:16:16;;;;;;;6.07;2.10;;;8.10;96.20;;;;;;5029531;28;20137;-64
2023/02/18 05:19:02;;;;;;;5.32;2.10;;;8.10;96.20;;;;;;5013659;28;20026;-65
2023/02/18 05:21:48;;;;;;;7.75;2.15;;;8.10;96.20;;;;;;5012088;28;20041;-65
2023/02/18 05:24:34;;;;;;;7.15;2.40;;;8.00;96.20;;;;;;5018156;28;20749;-66
2023/02/18 05:27:20;;;;;;;8.27;2.22;;;8.10;96.30;;;;;;5030630;28;20083;-66
2023/02/18 05:30:07;;;;;;;5.88;2.60;;;8.10;96.30;;;;;;5029591;28;20069;-65
2023/02/18 05:32:52;;;;;;;7.03;3.00;;;8.10;96.40;;;;;;5021791;28;20642;-66
2023/02/18 05:35:38;;;;;;;5.85;2.25;;;8.20;96.40;;;;;;5012901;28;20503;-65
2023/02/18 05:38:24;;;;;;;7.82;2.00;;;8.20;96.40;;;;;;5029853;28;20022;-65
2023/02/18 05:41:10;;;;;;;6.68;2.42;;;8.20;96.40;;;;;;5030990;28;20029;-64
2023/02/18 05:47:07;;;;;;;5.82;2.20;;;8.40;96.40;;;;;;5016044;28;20117;-65
2023/02/18 05:49:54;;;;;;;6.22;2.03;;;8.40;96.30;;;;;;5012896;28;20034;-65
2023/02/18 05:52:40;;;;;;;8.32;2.80;;;8.40;96.40;;;;;;5009917;28;20022;-64
2023/02/18 05:55:26;;;;;;;7.40;2.45;;;8.50;96.40;;;;;;5010834;28;20382;-65
2023/02/18 05:58:12;;;;;;;4.43;1.98;;;8.60;96.30;;;;;;5011325;28;20030;-65
2023/02/18 06:00:58;;;;;;;6.70;2.20;;;8.60;96.20;;;;;;5010931;28;20038;-65
2023/02/18 06:03:44;;;;;;;7.47;2.53;;;8.60;96.10;;;;;;5002845;28;20049;-65
2023/02/18 06:06:30;;;;;;;4.47;2.13;;;8.70;96.10;;;;;;5018091;28;20164;-65
2023/02/18 06:09:16;;;;;;;5.07;2.35;;;8.70;96.00;;;;;;5022793;28;20160;-65
2023/02/18 06:12:02;;;;;;;6.25;2.47;;;8.70;96.00;;;;;;5022870;28;20033;-66
2023/02/18 06:14:48;;;;;;;7.80;2.35;;;8.80;95.90;;;;;;5035305;28;20041;-64
2023/02/18 06:17:34;;;;;;;7.05;2.08;;;8.80;95.90;;;;;;5036656;28;20036;-65
2023/02/18 06:20:20;;;;;;;6.05;2.15;;;8.90;95.90;;;;;;5023110;28;20038;-65
2023/02/18 06:23:06;;;;;;;5.25;1.92;;;8.90;95.80;;;;;;4995573;28;20042;-64
2023/02/18 06:25:52;;;;;;;6.20;2.13;;;8.90;95.70;;;;;;5015196;28;20037;-65
2023/02/18 06:28:38;;;;;;;6.32;2.42;;;9.00;95.70;;;;;;5000728;28;20033;-65
2023/02/18 06:31:24;;;;;;;8.27;2.08;;;9.00;95.70;;;;;;5028345;28;20025;-65
2023/02/18 06:34:10;;;;;;;6.78;1.75;;;9.00;95.60;;;;;;5036145;28;20112;-65
2023/02/18 06:36:56;;;;;;;4.28;1.92;;;9.10;95.70;;;;;;5027166;28;20033;-65
2023/02/18 06:39:41;;;;;;;6.18;2.03;;;9.10;95.50;;;;;;5022006;28;20107;-64
2023/02/18 06:42:27;;;;;;;6.00;2.00;;;9.10;95.50;;;;;;5008693;28;20105;-64
2023/02/18 06:45:13;;;;;;;5.20;1.65;;;9.10;95.50;;;;;;5016183;28;20524;-63
2023/02/18 06:47:59;;;;;;;6.47;1.80;;;9.10;95.50;;;;;;5016166;28;20033;-64
2023/02/18 06:50:45;;;;;;;6.45;2.55;;;9.20;95.50;;;;;;5011880;28;20113;-64
2023/02/18 06:53:31;;;;;;;6.20;1.85;;;9.20;95.50;;;;;;5013756;28;20490;-64
2023/02/18 06:56:17;;;;;;;4.35;1.83;;;9.30;95.50;;;;;;5031525;28;20504;-64
2023/02/18 06:59:03;;;;;;;4.80;2.10;;;9.30;95.50;;;;;;5027427;28;20046;-63
2023/02/18 07:01:49;;;;;;;5.35;1.67;;;9.30;95.40;;;;;;5044769;28;20111;-64
2023/02/18 07:04:35;;;;;;;2.95;1.50;;;9.30;95.40;;;;;;5023548;28;20036;-64
2023/02/18 07:07:21;;;;;;;8.30;2.22;;;9.30;95.30;;;;;;5012659;28;20059;-65
2023/02/18 07:10:07;;;;;;;10.13;2.45;;;9.30;95.30;;;;;;5017109;28;20026;-65
2023/02/18 07:12:53;;;;;;;4.47;1.73;;;9.30;95.30;;;;;;5032594;28;20029;-64
2023/02/18 07:15:39;;;;;;;6.90;1.90;;;9.40;95.30;;;;;;5022902;28;20476;-65
2023/02/18 07:18:25;;;;;;;5.35;1.98;;;9.40;95.30;;;;;;5033917;28;20120;-64
2023/02/18 07:21:11;;;;;;;4.72;1.40;;;9.40;95.20;;;;;;5012327;28;20472;-64
2023/02/18 07:23:57;;;;;;;3.65;1.67;;;9.40;95.20;;;;;;5027828;28;20030;-64
2023/02/18 07:26:43;;;;;;;5.05;1.67;;;9.40;95.20;;;;;;5032121;28;20393;-64
2023/02/18 07:29:29;;;;;;;3.65;1.65;;;9.50;95.30;;;;;;5012386;28;20033;-65
2023/02/18 07:32:17;;;;;;;4.30;1.60;;;9.50;95.20;;;;;;5017721;28;20032;-63
2023/02/18 07:35:05;;;;;;;10.80;1.67;;;9.50;95.30;;;;;;5019729;28;20105;-63
2023/02/18 07:37:51;;;;;;;5.68;1.65;;;9.50;95.30;;;;;;5038269;28;20125;-64
2023/02/18 07:40:37;;;;;;;3.92;1.67;;;9.50;95.30;;;;;;5013424;28;20057;-64
2023/02/18 07:43:23;;;;;;;4.63;2.00;;;9.50;95.20;;;;;;5050426;28;20025;-64
2023/02/18 07:46:09;;;;;;;3.65;2.13;;;9.50;95.20;;;;;;5017599;28;20064;-63
2023/02/18 07:49:04;;;;;;;7.47;1.52;;;9.50;95.30;;;;;;4998057;28;20196;-64
2023/02/18 07:51:50;;;;;;;4.60;1.40;;;9.60;95.60;;;;;;5013751;28;20034;-63
2023/02/18 07:54:36;;;;;;;4.25;1.80;;;9.60;95.40;;;;;;5024685;28;20499;-63
2023/02/18 07:57:22;;;;;;;4.60;1.63;;;9.70;95.40;;;;;;5027907;28;20516;-64
2023/02/18 08:00:08;;;;;;;2.45;1.50;;;9.60;95.40;;;;;;5019506;28;20413;-64
2023/02/18 08:02:54;;;;;;;4.25;1.55;;;9.70;95.50;;;;;;5013320;28;20032;-63
2023/02/18 08:05:40;;;;;;;4.45;1.40;;;9.70;95.60;;;;;;5001134;28;20022;-64
2023/02/18 08:08:28;;;;;;;3.92;1.90;;;9.70;95.60;;;;;;5032389;28;20068;-63
2023/02/18 08:11:14;;;;;;;3.78;1.42;;;9.80;95.60;;;;;;5013061;28;20048;-64
2023/02/18 08:14:00;;;;;;;3.55;1.65;;;9.80;95.70;;;;;;5018669;28;20073;-64
2023/02/18 08:16:46;;;;;;;3.45;1.42;;;9.80;95.80;;;;;;5031490;28;20519;-64
2023/02/18 08:19:32;;;;;;;9.52;2.30;;;9.80;95.80;;;;;;5018837;28;20496;-63
2023/02/18 08:22:18;;;;;;;4.78;2.17;;;9.80;95.80;;;;;;5012752;28;20072;-63
2023/02/18 08:25:04;;;;;;;4.55;1.67;;;9.80;95.90;;;;;;5012406;28;20109;-63
2023/02/18 08:27:50;;;;;;;5.65;1.80;;;9.80;95.90;;;;;;5025413;28;20044;-64
2023/02/18 08:30:36;;;;;;;2.67;1.63;;;9.90;96.00;;;;;;5015786;28;20034;-63
2023/02/18 08:33:23;;;;;;;2.75;1.40;;;9.90;96.10;;;;;;5000802;28;20025;-63
2023/02/18 08:36:09;;;;;;;4.45;1.60;;;9.90;96.20;;;;;;5022300;28;20508;-63
2023/02/18 08:38:56;;;;;;;7.45;2.25;;;9.90;96.30;;;;;;5016860;28;20477;-63
2023/02/18 08:41:42;;;;;;;5.32;1.75;;;9.90;96.40;;;;;;5011530;28;20045;-64
2023/02/18 08:44:27;;;;;;;5.30;1.35;;;9.90;96.50;;;;;;5027806;28;20673;-64
2023/02/18 08:47:13;;;;;;;6.10;1.88;;;9.90;96.50;;;;;;5026233;28;20582;-64
2023/02/18 08:49:59;;;;;;;5.25;2.13;;;9.90;96.70;;;;;;5015639;28;20033;-64
2023/02/18 08:52:46;;;;;;;5.43;2.45;;;10.00;96.80;;;;;;5028017;28;20042;-62
2023/02/18 08:55:33;;;;;;;4.15;1.58;;;9.90;96.90;;;;;;5011830;28;20124;-63
2023/02/18 08:58:19;;;;;;;4.70;1.83;;;10.00;97.00;;;;;;5012911;28;20266;-61
2023/02/18 09:01:07;;;;;;;5.53;2.05;;;9.90;97.00;;;;;;5007074;28;20063;-61
2023/02/18 09:03:53;;;;;;;3.83;1.95;;;9.90;97.10;;;;;;5010332;28;20104;-62
2023/02/18 09:06:39;;;;;;;3.40;1.42;;;9.90;97.30;;;;;;5003133;28;20474;-62
2023/02/18 09:09:24;;;;;;;4.90;1.83;;;10.00;97.40;;;;;;5007026;28;20113;-62
2023/02/18 09:12:10;;;;;;;5.10;2.42;;;9.90;97.40;;;;;;5008857;28;20041;-62
2023/02/18 09:14:56;;;;;;;4.50;1.80;;;9.90;97.50;;;;;;4995432;28;20039;-62
2023/02/18 09:17:43;;;;;;;5.93;2.22;;;10.00;97.60;;;;;;4993717;28;20113;-63
2023/02/18 09:20:29;;;;;;;9.60;1.90;;;10.00;97.70;;;;;;5024420;28;20026;-62
2023/02/18 09:23:15;;;;;;;6.53;1.75;;;10.00;97.90;;;;;;5010165;28;20045;-62
2023/02/18 09:26:05;;;;;;;4.05;2.20;;;10.00;98.00;;;;;;5009462;28;20180;-62
2023/02/18 09:28:52;;;;;;;11.50;2.70;;;10.00;98.10;;;;;;5002250;28;20092;-62
2023/02/18 09:31:43;;;;;;;7.55;2.97;;;10.00;98.20;;;;;;5008862;28;20026;-62
2023/02/18 09:34:29;;;;;;;6.45;2.92;;;10.10;98.30;;;;;;5011326;28;20077;-61
2023/02/18 09:37:14;;;;;;;6.72;2.53;;;10.10;98.40;;;;;;4998561;28;20043;-61
2023/02/18 09:40:00;;;;;;;7.43;3.45;;;10.10;98.50;;;;;;5000164;28;20041;-62
2023/02/18 09:42:46;;;;;;;9.00;3.22;;;10.10;98.60;;;;;;4998709;28;20056;-63
2023/02/18 09:45:33;;;;;;;6.38;2.88;;;10.10;98.70;;;;;;4992454;28;20452;-62
2023/02/18 09:48:25;;;;;;;8.48;2.67;;;10.10;98.70;;;;;;4995496;28;20043;-63
2023/02/18 09:51:14;;;;;;;11.63;3.50;;;10.00;98.80;;;;;;4990482;28;20034;-62
2023/02/18 09:54:00;;;;;;;4.57;2.30;;;10.10;99.00;;;;;;5000875;28;20152;-62
2023/02/18 09:56:47;;;;;;;7.97;3.65;;;10.00;99.00;;;;;;5008830;28;20520;-63
2023/02/18 09:59:33;;;;;;;6.68;2.70;;;10.00;99.10;;;;;;5018220;28;20073;-62
2023/02/18 10:02:19;;;;;;;6.18;2.97;;;10.00;99.20;;;;;;5026677;28;20044;-62
2023/02/18 10:05:06;;;;;;;10.88;3.70;;;10.00;99.40;;;;;;5032626;28;20111;-63
2023/02/18 10:07:57;;;;;;;8.93;3.08;;;10.00;99.40;;;;;;5014076;28;20398;-62
2023/02/18 10:10:45;;;;;;;6.03;2.30;;;10.00;99.50;;;;;;5000787;28;20116;-62
2023/02/18 10:13:33;;;;;;;5.20;2.30;;;9.90;99.50;;;;;;5019233;28;20497;-62
2023/02/18 10:16:21;;;;;;;9.15;2.80;;;9.90;99.80;;;;;;5033936;28;20055;-63
2023/02/18 10:19:39;;;;;;;7.47;3.08;;;9.90;99.60;;;;;;5031670;28;20370;-62
2023/02/18 10:22:26;;;;;;;6.97;2.72;;;9.90;99.70;;;;;;5017377;28;20048;-63
2023/02/18 10:25:19;;;;;;;7.10;3.05;;;9.90;99.80;;;;;;5017223;28;20398;-63
2023/02/18 10:28:05;;;;;;;8.40;2.95;;;9.90;99.90;;;;;;5023836;28;20400;-63
2023/02/18 10:31:00;;;;;;;6.00;2.47;;;9.90;99.90;;;;;;5013987;28;20081;-63
2023/02/18 10:34:05;;;;;;;5.93;2.78;;;9.90;99.90;;;;;;5014860;28;20427;-63
2023/02/18 10:36:58;;;;;;;5.78;2.70;;;9.90;99.90;;;;;;5023642;28;20037;-63
2023/02/18 10:39:52;;;;;;;6.95;3.20;;;10.00;99.90;;;;;;5014147;28;20037;-63
2023/02/18 10:42:48;;;;;;;9.32;3.72;;;10.00;99.90;;;;;;5013412;28;20405;-63
2023/02/18 10:45:50;;;;;;;7.93;3.72;;;10.10;99.90;;;;;;5014563;28;20068;-63
2023/02/18 10:49:10;;;;;;;6.57;4.03;;;10.10;99.90;;;;;;5017264;28;20071;-63
2023/02/18 10:51:58;;;;;;;6.43;3.05;;;10.10;99.90;;;;;;4990780;28;20037;-63
2023/02/18 10:54:58;;;;;;;7.38;3.40;;;10.10;99.90;;;;;;5015673;28;20036;-62
2023/02/18 10:57:46;;;;;;;8.23;3.90;;;10.20;99.90;;;;;;5016651;28;20030;-63
2023/02/18 11:00:39;;;;;;;8.65;3.95;;;10.10;99.90;;;;;;5015151;28;20042;-63
2023/02/18 11:03:41;;;;;;;8.48;3.28;;;10.20;99.90;;;;;;5000239;28;20401;-63
2023/02/18 11:06:43;;;;;;;5.30;2.70;;;10.20;99.90;;;;;;5020222;28;20030;-63
2023/02/18 11:09:40;;;;;;;7.68;3.15;;;10.20;99.90;;;;;;5022266;28;20044;-62
2023/02/18 11:12:43;;;;;;;6.93;2.90;;;10.10;99.90;;;;;;5032016;28;20412;-63
2023/02/18 11:15:29;;;;;;;4.43;2.33;;;10.10;99.90;;;;;;5021723;28;20455;-63
2023/02/18 11:18:36;;;;;;;6.20;2.08;;;10.20;99.90;;;;;;5031233;28;20025;-63
2023/02/18 11:21:29;;;;;;;4.55;2.15;;;10.20;99.90;;;;;;5014421;28;20033;-63
2023/02/18 11:24:16;;;;;;;5.70;2.72;;;10.20;99.90;;;;;;5014739;28;20026;-63
2023/02/18 11:27:09;;;;;;;6.32;2.58;;;10.30;99.90;;;;;;5021352;28;20087;-63
2023/02/18 11:30:00;;;;;;;5.93;2.90;;;10.30;99.90;;;;;;5014240;28;20169;-63
2023/02/18 11:32:50;;;;;;;4.45;2.40;;;10.30;99.90;;;;;;5013342;28;20120;-63
2023/02/18 11:35:36;;;;;;;4.47;2.67;;;10.30;99.90;;;;;;5013854;28;20140;-63
2023/02/18 11:38:25;;;;;;;4.88;2.85;;;10.30;99.90;;;;;;5033359;28;20087;-62
2023/02/18 11:41:16;;;;;;;5.15;2.42;;;10.30;99.90;;;;;;5028352;28;20044;-62
2023/02/18 11:44:06;;;;;;;4.53;2.15;;;10.30;99.90;;;;;;5013188;28;20026;-63
2023/02/18 11:46:56;;;;;;;5.20;2.15;;;10.20;99.90;;;;;;5053468;28;20033;-63
2023/02/18 11:49:57;;;;;;;4.63;2.30;;;10.20;99.90;;;;;;5034900;28;20026;-63
2023/02/18 11:52:46;;;;;;;3.95;1.92;;;10.20;99.90;;;;;;5009587;28;20034;-62
2023/02/18 11:55:32;;;;;;;3.80;2.17;;;10.30;99.90;;;;;;5012003;28;20075;-63
2023/02/18 11:58:18;;;;;;;7.03;3.20;;;10.30;99.90;;;;;;5016666;28;20600;-63
2023/02/18 12:01:12;;;;;;;4.40;3.00;;;10.30;99.90;;;;;;5025786;28;20037;-63
2023/02/18 12:04:14;;;;;;;4.72;2.50;;;10.30;99.90;;;;;;5015477;28;20034;-62
2023/02/18 12:07:23;;;;;;;5.25;2.47;;;10.30;99.90;;;;;;5013371;28;20037;-62
2023/02/18 12:10:27;;;;;;;3.67;2.15;;;10.30;99.90;;;;;;5017557;28;20898;-62
2023/02/18 12:13:38;;;;;;;4.65;2.53;;;10.40;99.90;;;;;;5029194;28;20037;-61
2023/02/18 12:16:38;;;;;;;8.85;3.45;;;10.50;99.90;;;;;;5018219;28;20441;-60
2023/02/18 12:19:50;;;;;;;5.57;3.45;;;10.60;99.90;;;;;;5013966;28;20498;-61
2023/02/18 12:22:44;;;;;;;4.63;2.97;;;10.60;99.90;;;;;;5021300;28;20029;-60
2023/02/18 12:26:00;;;;;;;6.10;3.85;;;10.70;99.90;;;;;;5017413;28;20433;-60
2023/02/18 12:28:52;;;;;;;5.53;3.45;;;10.70;99.90;;;;;;5019569;28;20048;-60
2023/02/18 12:32:02;;;;;;;4.82;2.83;;;10.70;99.90;;;;;;5021477;28;20532;-60
2023/02/18 12:34:55;;;;;;;6.03;3.75;;;10.80;99.90;;;;;;5016382;28;20061;-61
2023/02/18 12:38:06;;;;;;;7.78;4.03;;;10.90;99.90;;;;;;5011834;28;20025;-61
2023/02/18 12:41:21;;;;;;;14.48;9.13;;;10.90;99.90;;;;;;5030718;28;20116;-61
2023/02/18 12:44:25;;;;;;;10.30;5.38;;;11.00;99.90;;;;;;4985010;28;20033;-62
2023/02/18 12:47:48;;;;;;;12.85;7.20;;;11.00;99.90;;;;;;5013540;28;20021;-61
2023/02/18 12:50:43;;;;;;;6.85;3.63;;;11.10;99.90;;;;;;5013474;28;20313;-62
2023/02/18 12:53:38;;;;;;;5.15;3.17;;;11.10;99.90;;;;;;5010741;28;20524;-62
2023/02/18 12:56:39;;;;;;;11.40;6.65;;;11.20;99.90;;;;;;5020740;28;20612;-62
2023/02/18 12:59:58;;;;;;;7.63;4.85;;;11.30;99.90;;;;;;5014133;28;20060;-62
2023/02/18 13:02:48;;;;;;;5.82;3.45;;;11.40;99.90;;;;;;5011814;28;20029;-62
2023/02/18 13:06:02;;;;;;;6.43;3.42;;;11.50;99.90;;;;;;5022272;28;20033;-62
2023/02/18 13:08:44;;;;;;;6.55;3.80;;;11.60;99.90;;;;;;5013700;28;20517;-61
2023/02/18 13:11:25;;;;;;;7.63;4.65;;;11.60;99.90;;;;;;5014291;28;20026;-62
2023/02/18 13:14:17;;;;;;;5.57;3.22;;;11.70;99.90;;;;;;5006370;28;20533;-61
2023/02/18 13:16:47;;;;;;;6.00;4.32;;;11.80;99.90;;;;;;5011576;28;20033;-62
2023/02/18 13:19:20;;;;;;;4.95;3.40;;;11.90;99.90;;;;;;5015409;28;20069;-63
2023/02/18 13:21:49;;;;;;;6.93;4.18;;;12.00;99.90;;;;;;5010101;28;20065;-62
2023/02/18 13:24:28;;;;;;;7.95;4.70;;;12.00;99.90;;;;;;5010896;28;20030;-62
2023/02/18 13:27:02;;;;;;;4.75;3.53;;;12.00;99.90;;;;;;5012310;28;22140;-63
2023/02/18 13:29:34;;;;;;;4.70;2.90;;;12.10;99.90;;;;;;5019571;28;20112;-63
2023/02/18 13:32:15;;;;;;;11.57;6.20;;;12.10;99.90;;;;;;5011284;28;20079;-62
2023/02/18 13:34:54;;;;;;;4.70;2.70;;;12.10;99.90;;;;;;5017572;28;20109;-62
2023/02/18 13:37:38;;;;;;;9.25;5.72;;;12.10;99.90;;;;;;5014225;28;20088;-62
2023/02/18 13:40:16;;;;;;;4.45;2.97;;;12.10;99.90;;;;;;5015808;28;20053;-61
2023/02/18 13:42:41;;;;;;;5.38;3.22;;;12.10;99.90;;;;;;5015186;28;20291;-60
2023/02/18 13:45:30;;;;;;;5.07;2.72;;;12.20;99.90;;;;;;5022625;28;20576;-60
2023/02/18 13:47:57;;;;;;;5.45;3.60;;;12.20;99.90;;;;;;5019779;28;20056;-60
2023/02/18 13:50:24;;;;;;;3.80;2.15;;;12.20;99.90;;;;;;5016397;28;20394;-62
2023/02/18 13:53:11;;;;;;;3.63;1.92;;;12.20;99.90;;;;;;5023706;28;20052;-61
2023/02/18 13:55:37;;;;;;;3.05;1.90;;;12.30;99.90;;;;;;5020579;28;20044;-60
2023/02/18 13:58:03;;;;;;;4.65;2.78;;;12.30;99.90;;;;;;5016969;28;20026;-61
2023/02/18 14:00:40;;;;;;;3.63;2.25;;;12.30;99.90;;;;;;5014403;28;20057;-61
2023/02/18 14:03:29;;;;;;;3.15;2.10;;;12.30;99.90;;;;;;5009431;28;20128;-62
2023/02/18 14:05:56;;;;;;;3.08;2.55;;;12.30;99.90;;;;;;5013321;28;20033;-61
2023/02/18 14:08:35;;;;;;;4.35;2.35;;;12.30;99.90;;;;;;5014432;28;20118;-61
2023/02/18 14:11:10;;;;;;;3.88;2.10;;;12.30;99.90;;;;;;5023889;28;20048;-61
2023/02/18 14:14:12;;;;;;;2.92;2.00;;;12.30;99.90;;;;;;5043553;28;20037;-61
2023/02/18 14:17:12;;;;;;;3.00;2.10;;;12.30;99.90;;;;;;5014536;28;20038;-61
2023/02/18 14:19:38;;;;;;;2.72;1.95;;;12.30;99.90;;;;;;5011674;28;20068;-61
2023/02/18 14:22:33;;;;;;;4.72;2.00;;;12.30;99.90;;;;;;5021858;28;20549;-61
2023/02/18 14:25:12;;;;;;;3.30;2.35;;;12.30;99.90;;;;;;5020861;28;20057;-61
2023/02/18 14:27:39;;;;;;;3.38;1.95;;;12.30;99.90;;;;;;5032455;28;20037;-61
2023/02/18 14:30:15;;;;;;;3.47;2.10;;;12.30;99.90;;;;;;5026391;28;20060;-61
2023/02/18 14:32:42;;;;;;;2.97;1.63;;;12.30;99.90;;;;;;5028112;28;20503;-61
2023/02/18 14:35:31;;;;;;;3.00;2.00;;;12.30;99.90;;;;;;5015253;28;20056;-61
2023/02/18 14:38:18;;;;;;;2.35;1.65;;;12.30;99.90;;;;;;5023575;28;20034;-60
2023/02/18 14:40:57;;;;;;;3.53;2.03;;;12.30;99.90;;;;;;5018313;28;20485;-61
2023/02/18 14:43:32;;;;;;;2.30;1.75;;;12.30;99.90;;;;;;5032236;28;20036;-61
2023/02/18 14:46:07;;;;;;;2.92;1.85;;;12.30;99.90;;;;;;5028187;28;20030;-60